Aviation Digital Data Service (ADDS)

Output produced by METARs form (1907 UTC 19 April 2015)
found at http://aviationweather.gov/adds/metars/
 
KPBG 191722Z 1918/2018 08006KT P6SM SKC 
     FM200300 13004KT P6SM SCT250 
     FM200900 15010G18KT P6SM OVC120 
     FM201500 17022G32KT P6SM -RA OVC050